Time;durP1;ratioP1;P1;durP2;ratioP2;P2;SDS_P1;SDS_P2;PMS_P1;PMS_P2;Temp;Humidity;BMP_temperature;BMP_pressure;BME280_temperature;BME280_humidity;BME280_pressure;Samples;Min_cycle;Max_cycle;Signal;HPM_P1;HPM_P2
2022/07/20 00:00:33;;;;;;;2.67;2.28;;;;;;;;;;4484043;28;20030;-63
2022/07/20 00:02:43;;;;;;;2.92;2.20;;;;;;;;;;4482773;28;20069;-63
2022/07/20 00:04:54;;;;;;;3.17;2.30;;;;;;;;;;4483982;28;20841;-63
2022/07/20 00:07:05;;;;;;;3.08;2.45;;;;;;;;;;4484835;28;20078;-63
2022/07/20 00:11:46;;;;;;;2.40;2.20;;;;;;;;;;4483594;28;20228;-63
2022/07/20 00:14:01;;;;;;;2.85;2.38;;;;;;;;;;4484034;28;20041;-62
2022/07/20 00:16:11;;;;;;;3.10;2.40;;;;;;;;;;4461109;28;20118;-62
2022/07/20 00:18:22;;;;;;;2.63;2.28;;;;;;;;;;4460199;28;20033;-62
2022/07/20 00:20:33;;;;;;;3.28;2.63;;;;;;;;;;4483678;28;20532;-64
2022/07/20 00:22:43;;;;;;;2.90;2.40;;;;;;;;;;4484030;28;20034;-64
2022/07/20 00:24:54;;;;;;;2.65;2.30;;;;;;;;;;4484306;28;20039;-63
2022/07/20 00:27:04;;;;;;;3.05;2.55;;;;;;;;;;4483921;28;20038;-63
2022/07/20 00:29:16;;;;;;;2.97;2.40;;;;;;;;;;4483475;28;20065;-63
2022/07/20 00:31:26;;;;;;;4.10;2.75;;;;;;;;;;4484429;28;20714;-64
2022/07/20 00:33:37;;;;;;;3.58;2.50;;;;;;;;;;4484099;28;20167;-63
2022/07/20 00:35:48;;;;;;;3.92;2.50;;;;;;;;;;4483814;28;20054;-64
2022/07/20 00:37:58;;;;;;;3.65;2.45;;;;;;;;;;4482794;28;20561;-63
2022/07/20 00:40:11;;;;;;;2.90;2.40;;;;;;;;;;4465579;28;20027;-63
2022/07/20 00:42:22;;;;;;;2.78;2.35;;;;;;;;;;4483461;28;20507;-62
2022/07/20 00:44:32;;;;;;;2.95;2.60;;;;;;;;;;4483324;28;20066;-63
2022/07/20 00:46:44;;;;;;;3.95;2.50;;;;;;;;;;4481853;28;20129;-63
2022/07/20 00:48:54;;;;;;;2.63;2.35;;;;;;;;;;4482448;28;20810;-62
2022/07/20 00:51:05;;;;;;;3.15;2.50;;;;;;;;;;4483064;28;20034;-63
2022/07/20 00:53:16;;;;;;;3.28;2.30;;;;;;;;;;4484097;28;20786;-64
2022/07/20 00:55:27;;;;;;;3.35;2.30;;;;;;;;;;4483406;28;20139;-64
2022/07/20 00:57:37;;;;;;;3.00;2.50;;;;;;;;;;4483868;28;20601;-63
2022/07/20 00:59:48;;;;;;;3.83;2.80;;;;;;;;;;4482139;28;20043;-62
2022/07/20 01:01:58;;;;;;;2.75;2.30;;;;;;;;;;4483257;28;20038;-63
2022/07/20 01:04:09;;;;;;;2.97;2.35;;;;;;;;;;4486955;28;20023;-63
2022/07/20 01:06:20;;;;;;;3.15;2.20;;;;;;;;;;4487068;28;20116;-63
2022/07/20 01:08:31;;;;;;;3.85;2.60;;;;;;;;;;4486514;28;20121;-63
2022/07/20 01:10:41;;;;;;;3.47;2.47;;;;;;;;;;4485243;28;20028;-63
2022/07/20 01:12:52;;;;;;;2.50;2.30;;;;;;;;;;4485635;28;20454;-62
2022/07/20 01:15:03;;;;;;;3.17;2.58;;;;;;;;;;4487332;28;20126;-62
2022/07/20 01:17:14;;;;;;;3.17;2.60;;;;;;;;;;4464865;28;20050;-62
2022/07/20 01:19:24;;;;;;;2.90;2.63;;;;;;;;;;4485850;28;20617;-62
2022/07/20 01:21:40;;;;;;;2.78;2.53;;;;;;;;;;4486794;28;20088;-63
2022/07/20 01:23:51;;;;;;;3.17;2.60;;;;;;;;;;4485160;28;20556;-63
2022/07/20 01:26:02;;;;;;;3.03;2.47;;;;;;;;;;4485928;28;20667;-63
2022/07/20 01:28:14;;;;;;;2.50;2.28;;;;;;;;;;4485698;28;20049;-63
2022/07/20 01:30:24;;;;;;;2.80;2.40;;;;;;;;;;4484347;28;20041;-63
2022/07/20 01:32:35;;;;;;;2.90;2.38;;;;;;;;;;4486142;28;20033;-63
2022/07/20 01:34:45;;;;;;;2.50;2.25;;;;;;;;;;4486643;28;20962;-63
2022/07/20 01:36:56;;;;;;;3.15;2.30;;;;;;;;;;4486292;28;20038;-63
2022/07/20 01:39:06;;;;;;;2.97;2.33;;;;;;;;;;4486576;28;20403;-63
2022/07/20 01:41:17;;;;;;;2.53;2.33;;;;;;;;;;4484054;28;20553;-63
2022/07/20 01:43:28;;;;;;;3.40;2.47;;;;;;;;;;4486294;28;20093;-63
2022/07/20 01:45:39;;;;;;;3.03;2.35;;;;;;;;;;4485769;28;20499;-63
2022/07/20 01:47:49;;;;;;;3.15;2.35;;;;;;;;;;4486197;28;20818;-63
2022/07/20 01:50:00;;;;;;;2.85;2.38;;;;;;;;;;4452805;28;20043;-63
2022/07/20 01:52:10;;;;;;;2.40;2.20;;;;;;;;;;4485654;28;20105;-63
2022/07/20 01:54:21;;;;;;;2.70;2.20;;;;;;;;;;4485866;28;20118;-63
2022/07/20 01:56:31;;;;;;;3.05;2.50;;;;;;;;;;4486530;28;20045;-63
2022/07/20 01:58:42;;;;;;;2.78;2.47;;;;;;;;;;4486682;28;20038;-63
2022/07/20 02:00:52;;;;;;;2.60;2.30;;;;;;;;;;4486214;28;20023;-63
2022/07/20 02:03:03;;;;;;;2.55;2.20;;;;;;;;;;4484910;28;20042;-63
2022/07/20 02:05:14;;;;;;;2.42;2.20;;;;;;;;;;4486613;28;20042;-63
2022/07/20 02:07:24;;;;;;;3.53;2.25;;;;;;;;;;4485897;28;20415;-62
2022/07/20 02:09:35;;;;;;;2.38;2.17;;;;;;;;;;4468284;28;20045;-64
2022/07/20 02:11:45;;;;;;;2.63;2.20;;;;;;;;;;4485954;28;20085;-63
2022/07/20 02:13:56;;;;;;;3.15;2.40;;;;;;;;;;4485159;28;20744;-63
2022/07/20 02:16:16;;;;;;;2.58;2.10;;;;;;;;;;4485780;28;20038;-64
2022/07/20 02:18:26;;;;;;;3.45;2.55;;;;;;;;;;4486528;28;20035;-64
2022/07/20 02:20:37;;;;;;;2.38;1.95;;;;;;;;;;4461872;28;20031;-62
2022/07/20 02:22:48;;;;;;;2.90;2.20;;;;;;;;;;4486593;28;20065;-63
2022/07/20 02:24:58;;;;;;;2.78;2.33;;;;;;;;;;4467885;28;20150;-63
2022/07/20 02:27:09;;;;;;;3.28;2.42;;;;;;;;;;4485749;28;20124;-63
2022/07/20 02:29:19;;;;;;;2.60;2.30;;;;;;;;;;4485846;28;20065;-63
2022/07/20 02:31:30;;;;;;;3.40;2.20;;;;;;;;;;4483969;28;20517;-63
2022/07/20 02:33:40;;;;;;;3.15;2.20;;;;;;;;;;4485868;28;20041;-63
2022/07/20 02:35:51;;;;;;;3.40;2.25;;;;;;;;;;4485031;28;20705;-63
2022/07/20 02:38:02;;;;;;;2.75;2.28;;;;;;;;;;4468942;28;20038;-63
2022/07/20 02:40:12;;;;;;;3.95;2.47;;;;;;;;;;4486264;28;20029;-63
2022/07/20 02:42:23;;;;;;;2.58;2.10;;;;;;;;;;4485584;28;20038;-63
2022/07/20 02:44:33;;;;;;;2.92;2.13;;;;;;;;;;4485139;28;20043;-63
2022/07/20 02:46:44;;;;;;;2.90;2.53;;;;;;;;;;4485523;28;20510;-63
2022/07/20 02:48:54;;;;;;;3.17;2.30;;;;;;;;;;4486145;28;20499;-63
2022/07/20 02:51:05;;;;;;;3.00;2.45;;;;;;;;;;4485120;28;20541;-63
2022/07/20 02:53:15;;;;;;;2.60;2.40;;;;;;;;;;4467250;28;20572;-63
2022/07/20 02:55:27;;;;;;;2.58;2.38;;;;;;;;;;4485283;28;20406;-63
2022/07/20 02:57:38;;;;;;;2.42;2.20;;;;;;;;;;4467787;28;20030;-62
2022/07/20 02:59:48;;;;;;;3.10;2.30;;;;;;;;;;4485153;28;20027;-63
2022/07/20 03:01:59;;;;;;;3.17;2.28;;;;;;;;;;4485514;28;20237;-62
2022/07/20 03:04:09;;;;;;;2.65;2.42;;;;;;;;;;4485135;28;20045;-62
2022/07/20 03:06:20;;;;;;;3.38;2.40;;;;;;;;;;4486060;28;20498;-62
2022/07/20 03:08:30;;;;;;;2.75;2.35;;;;;;;;;;4483675;28;20088;-62
2022/07/20 03:10:41;;;;;;;2.25;2.05;;;;;;;;;;4484755;28;20061;-62
2022/07/20 03:12:51;;;;;;;2.38;2.17;;;;;;;;;;4484893;28;20117;-63
2022/07/20 03:15:03;;;;;;;3.38;2.40;;;;;;;;;;4485818;28;20064;-63
2022/07/20 03:17:14;;;;;;;3.30;2.20;;;;;;;;;;4484757;28;20361;-63
2022/07/20 03:19:25;;;;;;;2.63;2.20;;;;;;;;;;4482987;28;20105;-63
2022/07/20 03:21:35;;;;;;;3.28;2.45;;;;;;;;;;4484823;28;20302;-63
2022/07/20 03:23:46;;;;;;;2.47;2.28;;;;;;;;;;4485183;28;20062;-64
2022/07/20 03:25:56;;;;;;;2.75;2.40;;;;;;;;;;4483965;28;20117;-63
2022/07/20 03:28:07;;;;;;;2.97;2.38;;;;;;;;;;4468004;28;20479;-63
2022/07/20 03:30:17;;;;;;;3.55;2.38;;;;;;;;;;4484862;28;20045;-63
2022/07/20 03:32:28;;;;;;;2.80;2.20;;;;;;;;;;4485125;28;20407;-64
2022/07/20 03:34:38;;;;;;;2.40;2.10;;;;;;;;;;4484800;28;20034;-63
2022/07/20 03:36:49;;;;;;;3.38;2.40;;;;;;;;;;4484403;28;20810;-66
2022/07/20 03:38:59;;;;;;;2.53;2.17;;;;;;;;;;4484342;28;20034;-64
2022/07/20 03:41:10;;;;;;;2.75;2.33;;;;;;;;;;4483475;28;20033;-65
2022/07/20 03:43:21;;;;;;;3.97;2.50;;;;;;;;;;4467646;28;20106;-65
2022/07/20 03:45:32;;;;;;;2.63;2.40;;;;;;;;;;4485263;28;20584;-64
2022/07/20 03:47:42;;;;;;;2.58;2.00;;;;;;;;;;4485313;28;20046;-66
2022/07/20 03:49:53;;;;;;;2.58;2.00;;;;;;;;;;4485482;28;20403;-63
2022/07/20 03:52:04;;;;;;;2.72;2.42;;;;;;;;;;4466108;28;20083;-63
2022/07/20 03:54:15;;;;;;;3.40;2.20;;;;;;;;;;4484948;28;20035;-63
2022/07/20 03:56:25;;;;;;;3.50;2.20;;;;;;;;;;4484595;28;20501;-63
2022/07/20 03:58:36;;;;;;;2.33;2.00;;;;;;;;;;4485669;28;20446;-63
2022/07/20 04:00:46;;;;;;;2.63;2.30;;;;;;;;;;4485369;28;20034;-63
2022/07/20 04:02:57;;;;;;;3.05;2.10;;;;;;;;;;4485276;28;20026;-63
2022/07/20 04:05:08;;;;;;;3.10;2.38;;;;;;;;;;4483504;28;20593;-63
2022/07/20 04:07:18;;;;;;;2.40;2.20;;;;;;;;;;4485840;28;20046;-63
2022/07/20 04:09:44;;;;;;;2.80;2.15;;;;;;;;;;4484697;28;20081;-64
2022/07/20 04:11:54;;;;;;;2.42;2.22;;;;;;;;;;4484725;28;20593;-63
2022/07/20 04:14:05;;;;;;;3.10;2.20;;;;;;;;;;4484381;28;20041;-63
2022/07/20 04:16:15;;;;;;;2.90;2.15;;;;;;;;;;4484190;28;20034;-62
2022/07/20 04:18:26;;;;;;;2.95;2.38;;;;;;;;;;4485614;28;20386;-64
2022/07/20 04:20:36;;;;;;;2.50;2.20;;;;;;;;;;4484466;28;20134;-64
2022/07/20 04:22:47;;;;;;;2.50;2.30;;;;;;;;;;4484541;28;20101;-62
2022/07/20 04:24:58;;;;;;;2.58;2.25;;;;;;;;;;4483281;28;20711;-62
2022/07/20 04:27:08;;;;;;;3.22;2.30;;;;;;;;;;4482930;28;20046;-63
2022/07/20 04:29:19;;;;;;;2.75;2.40;;;;;;;;;;4485375;28;20089;-62
2022/07/20 04:31:29;;;;;;;3.00;2.33;;;;;;;;;;4484257;28;20133;-62
2022/07/20 04:33:40;;;;;;;2.60;2.40;;;;;;;;;;4484618;28;20073;-63
2022/07/20 04:35:51;;;;;;;2.63;2.30;;;;;;;;;;4484759;28;20375;-63
2022/07/20 04:38:01;;;;;;;2.67;2.22;;;;;;;;;;4470741;28;20026;-63
2022/07/20 04:40:12;;;;;;;4.07;2.50;;;;;;;;;;4486978;28;20511;-63
2022/07/20 04:42:23;;;;;;;4.30;2.60;;;;;;;;;;4487806;28;20038;-63
2022/07/20 04:44:33;;;;;;;3.72;2.65;;;;;;;;;;4488448;28;20510;-63
2022/07/20 04:46:44;;;;;;;3.25;2.70;;;;;;;;;;4486563;28;20043;-63
2022/07/20 04:48:56;;;;;;;3.85;2.60;;;;;;;;;;4488416;28;20116;-63
2022/07/20 04:51:06;;;;;;;3.08;2.53;;;;;;;;;;4485771;28;20031;-63
2022/07/20 04:53:17;;;;;;;3.75;2.70;;;;;;;;;;4488013;28;20466;-64
2022/07/20 04:55:27;;;;;;;3.30;2.35;;;;;;;;;;4488196;28;20050;-63
2022/07/20 04:57:38;;;;;;;2.97;2.30;;;;;;;;;;4487929;28;20081;-63
2022/07/20 04:59:48;;;;;;;2.63;2.40;;;;;;;;;;4487832;28;20390;-63
2022/07/20 05:02:00;;;;;;;2.88;2.30;;;;;;;;;;4487883;28;20368;-64
2022/07/20 05:04:10;;;;;;;3.10;2.30;;;;;;;;;;4464474;28;20619;-63
2022/07/20 05:06:21;;;;;;;2.38;1.98;;;;;;;;;;4468255;28;20030;-63
2022/07/20 05:08:31;;;;;;;2.22;2.00;;;;;;;;;;4487557;28;20042;-63
2022/07/20 05:10:42;;;;;;;1.80;1.50;;;;;;;;;;4470851;28;20038;-63
2022/07/20 05:12:52;;;;;;;2.20;1.50;;;;;;;;;;4488202;28;20121;-64
2022/07/20 05:15:03;;;;;;;3.25;1.60;;;;;;;;;;4486448;28;20031;-64
2022/07/20 05:17:14;;;;;;;3.03;1.50;;;;;;;;;;4487924;28;20058;-64
2022/07/20 05:19:25;;;;;;;2.55;1.50;;;;;;;;;;4469707;28;20039;-63
2022/07/20 05:21:35;;;;;;;1.20;0.80;;;;;;;;;;4471281;28;20438;-64
2022/07/20 05:23:46;;;;;;;2.63;1.42;;;;;;;;;;4486827;28;20066;-64
2022/07/20 05:25:56;;;;;;;1.90;1.48;;;;;;;;;;4472711;28;20520;-64
2022/07/20 05:28:07;;;;;;;2.25;1.27;;;;;;;;;;4486166;28;20349;-63
2022/07/20 05:30:17;;;;;;;1.67;1.42;;;;;;;;;;4484918;28;20068;-65
2022/07/20 05:32:28;;;;;;;1.50;1.20;;;;;;;;;;4487390;28;20101;-63
2022/07/20 05:34:38;;;;;;;2.80;1.70;;;;;;;;;;4487206;28;20674;-64
2022/07/20 05:36:49;;;;;;;2.30;2.10;;;;;;;;;;4486595;28;20038;-63
2022/07/20 05:39:00;;;;;;;2.45;2.22;;;;;;;;;;4484808;28;20041;-64
2022/07/20 05:41:10;;;;;;;2.22;2.03;;;;;;;;;;4468107;28;20034;-63
2022/07/20 05:43:21;;;;;;;2.13;1.92;;;;;;;;;;4486986;28;20045;-63
2022/07/20 05:45:32;;;;;;;3.40;2.35;;;;;;;;;;4486235;28;20805;-64
2022/07/20 05:47:42;;;;;;;2.63;2.10;;;;;;;;;;4485500;28;20042;-63
2022/07/20 05:49:53;;;;;;;3.97;2.08;;;;;;;;;;4470831;28;20541;-64
2022/07/20 05:52:04;;;;;;;1.80;1.50;;;;;;;;;;4484778;28;20038;-63
2022/07/20 05:54:14;;;;;;;2.70;1.70;;;;;;;;;;4469616;28;20362;-63
2022/07/20 05:56:25;;;;;;;1.67;1.50;;;;;;;;;;4486731;28;20512;-63
2022/07/20 05:58:35;;;;;;;1.65;1.48;;;;;;;;;;4485258;28;20766;-64
2022/07/20 06:00:46;;;;;;;1.50;1.40;;;;;;;;;;4486155;28;20487;-63
2022/07/20 06:02:56;;;;;;;1.40;1.30;;;;;;;;;;4485963;28;20434;-63
2022/07/20 06:05:07;;;;;;;1.13;1.02;;;;;;;;;;4468158;28;20134;-63
2022/07/20 06:07:18;;;;;;;1.73;1.40;;;;;;;;;;4468928;28;20150;-63
2022/07/20 06:09:29;;;;;;;3.00;2.50;;;;;;;;;;4466325;28;20342;-63
2022/07/20 06:11:39;;;;;;;3.50;2.20;;;;;;;;;;4469737;28;20547;-64
2022/07/20 06:13:50;;;;;;;3.45;2.60;;;;;;;;;;4485991;28;20090;-62
2022/07/20 06:16:00;;;;;;;3.67;2.60;;;;;;;;;;4469316;28;20035;-63
2022/07/20 06:18:11;;;;;;;2.78;2.28;;;;;;;;;;4486279;28;20414;-62
2022/07/20 06:20:23;;;;;;;2.90;2.40;;;;;;;;;;4469154;28;20546;-62
2022/07/20 06:22:35;;;;;;;2.90;2.00;;;;;;;;;;4485068;28;20053;-62
2022/07/20 06:24:45;;;;;;;3.90;2.33;;;;;;;;;;4485282;28;20022;-62
2022/07/20 06:26:56;;;;;;;4.95;2.55;;;;;;;;;;4484644;28;20050;-62
2022/07/20 06:29:07;;;;;;;3.00;2.35;;;;;;;;;;4468593;28;20034;-62
2022/07/20 06:31:17;;;;;;;3.60;2.33;;;;;;;;;;4485549;28;20073;-62
2022/07/20 06:33:28;;;;;;;4.85;2.40;;;;;;;;;;4486629;28;20034;-62
2022/07/20 06:35:38;;;;;;;2.10;1.90;;;;;;;;;;4485970;28;20117;-62
2022/07/20 06:37:49;;;;;;;2.67;2.05;;;;;;;;;;4485497;28;20043;-62
2022/07/20 06:40:00;;;;;;;2.78;2.20;;;;;;;;;;4484031;28;20038;-62
2022/07/20 06:42:11;;;;;;;3.08;2.40;;;;;;;;;;4486592;28;20553;-62
2022/07/20 06:44:21;;;;;;;2.50;2.30;;;;;;;;;;4484801;28;20122;-62
2022/07/20 06:46:32;;;;;;;2.70;2.40;;;;;;;;;;4485933;28;20049;-62
2022/07/20 06:48:42;;;;;;;2.70;2.15;;;;;;;;;;4485598;28;20029;-62
2022/07/20 06:50:53;;;;;;;2.70;2.33;;;;;;;;;;4486063;28;20049;-62
2022/07/20 06:53:03;;;;;;;2.83;2.10;;;;;;;;;;4485819;28;20038;-63
2022/07/20 06:55:14;;;;;;;3.05;2.15;;;;;;;;;;4485443;28;20117;-62
2022/07/20 06:57:24;;;;;;;2.92;2.00;;;;;;;;;;4482549;28;20109;-61
2022/07/20 06:59:37;;;;;;;3.88;2.10;;;;;;;;;;4485670;28;20644;-65
2022/07/20 07:01:47;;;;;;;3.60;2.30;;;;;;;;;;4484250;28;20034;-62
2022/07/20 07:03:58;;;;;;;2.83;2.10;;;;;;;;;;4484764;28;20042;-63
2022/07/20 07:06:08;;;;;;;2.97;2.25;;;;;;;;;;4485819;28;20030;-63
2022/07/20 08:07:04;;;;;;;3.72;2.80;;;;;;;;;;4478965;28;20121;-58
2022/07/20 08:09:14;;;;;;;3.42;2.50;;;;;;;;;;4483767;28;20149;-58
2022/07/20 08:11:25;;;;;;;3.85;2.40;;;;;;;;;;4483913;28;20162;-57
2022/07/20 08:13:36;;;;;;;3.13;2.67;;;;;;;;;;4483815;28;20117;-58
2022/07/20 08:15:46;;;;;;;3.47;2.80;;;;;;;;;;4483292;28;20042;-57
2022/07/20 08:17:57;;;;;;;3.72;2.65;;;;;;;;;;4447135;28;20066;-58
2022/07/20 08:20:08;;;;;;;4.53;2.90;;;;;;;;;;4451904;28;20035;-58
2022/07/20 08:22:19;;;;;;;3.65;2.78;;;;;;;;;;4483991;28;20038;-58
2022/07/20 08:24:29;;;;;;;3.20;2.70;;;;;;;;;;4482489;28;20041;-59
2022/07/20 08:26:40;;;;;;;3.45;2.70;;;;;;;;;;4484553;28;20049;-59
2022/07/20 08:28:50;;;;;;;2.90;2.60;;;;;;;;;;4484485;28;20040;-59
2022/07/20 08:31:01;;;;;;;3.65;3.10;;;;;;;;;;4483886;28;20494;-58
2022/07/20 08:33:11;;;;;;;3.10;2.60;;;;;;;;;;4483531;28;20034;-60
2022/07/20 08:35:22;;;;;;;3.80;2.70;;;;;;;;;;4483932;28;20050;-60
2022/07/20 08:37:33;;;;;;;4.63;2.80;;;;;;;;;;4483448;28;20387;-57
2022/07/20 08:39:43;;;;;;;4.78;3.15;;;;;;;;;;4447408;28;20649;-65
2022/07/20 08:41:54;;;;;;;5.78;3.22;;;;;;;;;;4439389;28;20669;-57
2022/07/20 08:44:04;;;;;;;5.00;3.10;;;;;;;;;;4433420;28;20044;-57
2022/07/20 08:46:16;;;;;;;4.47;3.40;;;;;;;;;;4465927;28;20399;-58
2022/07/20 08:48:27;;;;;;;3.72;2.63;;;;;;;;;;4449287;28;20130;-58
2022/07/20 08:50:37;;;;;;;3.58;2.85;;;;;;;;;;4465935;28;20089;-57
2022/07/20 08:52:48;;;;;;;4.50;2.70;;;;;;;;;;4466322;28;20039;-57
2022/07/20 08:54:59;;;;;;;5.18;2.53;;;;;;;;;;4466252;28;20149;-57
2022/07/20 08:57:10;;;;;;;3.80;2.90;;;;;;;;;;4465884;28;20035;-58
2022/07/20 08:59:21;;;;;;;3.88;2.47;;;;;;;;;;4466859;28;20728;-58
2022/07/20 09:01:32;;;;;;;2.38;2.05;;;;;;;;;;4466376;28;20034;-58
2022/07/20 09:03:46;;;;;;;3.72;2.10;;;;;;;;;;4466753;28;20026;-58
2022/07/20 09:06:06;;;;;;;2.10;1.70;;;;;;;;;;4466947;28;20043;-58
2022/07/20 09:08:17;;;;;;;2.13;1.75;;;;;;;;;;4464949;28;20090;-58
2022/07/20 09:10:36;;;;;;;2.30;1.80;;;;;;;;;;4465369;28;20050;-57
2022/07/20 09:12:56;;;;;;;2.70;1.60;;;;;;;;;;4465864;28;20036;-58
2022/07/20 09:15:07;;;;;;;2.78;1.52;;;;;;;;;;4464895;28;20045;-57
2022/07/20 09:17:20;;;;;;;2.67;1.48;;;;;;;;;;4465365;28;20034;-57
2022/07/20 09:20:05;;;;;;;1.88;1.42;;;;;;;;;;4466182;28;20070;-57
2022/07/20 09:22:36;;;;;;;1.73;1.60;;;;;;;;;;4465881;28;20050;-57
2022/07/20 09:24:47;;;;;;;2.35;1.77;;;;;;;;;;4467823;28;20054;-58
2022/07/20 09:27:04;;;;;;;2.70;1.80;;;;;;;;;;4468937;28;20050;-57
2022/07/20 09:29:14;;;;;;;3.33;1.63;;;;;;;;;;4468749;28;20042;-57
2022/07/20 09:31:33;;;;;;;2.85;1.70;;;;;;;;;;4470133;28;20261;-58
2022/07/20 09:34:06;;;;;;;3.03;1.70;;;;;;;;;;4451559;28;20042;-57
2022/07/20 09:36:19;;;;;;;3.47;1.80;;;;;;;;;;4451511;28;20739;-57
2022/07/20 09:38:40;;;;;;;3.10;1.70;;;;;;;;;;4469223;28;20105;-58
2022/07/20 09:40:53;;;;;;;3.08;1.90;;;;;;;;;;4451923;28;20039;-58
2022/07/20 09:43:03;;;;;;;3.97;2.10;;;;;;;;;;4468974;28;20034;-57
2022/07/20 09:45:19;;;;;;;3.92;1.85;;;;;;;;;;4469293;28;20593;-57
2022/07/20 09:47:30;;;;;;;2.25;1.55;;;;;;;;;;4468960;28;20112;-58
2022/07/20 09:49:41;;;;;;;2.38;1.38;;;;;;;;;;4451657;28;20102;-58
2022/07/20 09:51:59;;;;;;;2.53;1.38;;;;;;;;;;4468998;28;20042;-58
2022/07/20 09:54:15;;;;;;;3.13;1.80;;;;;;;;;;4468602;28;20035;-59
2022/07/20 09:56:26;;;;;;;4.47;2.05;;;;;;;;;;4451488;28;20043;-58
2022/07/20 09:58:37;;;;;;;3.22;1.73;;;;;;;;;;4451321;28;20028;-58
2022/07/20 10:00:47;;;;;;;3.55;1.88;;;;;;;;;;4469153;28;20616;-58
2022/07/20 10:02:59;;;;;;;3.38;1.77;;;;;;;;;;4468620;28;20043;-58
2022/07/20 10:05:10;;;;;;;4.13;2.10;;;;;;;;;;4450508;28;20641;-59
2022/07/20 10:07:21;;;;;;;2.63;1.60;;;;;;;;;;4468261;28;20043;-58
2022/07/20 10:09:32;;;;;;;2.28;1.45;;;;;;;;;;4468418;28;20042;-59
2022/07/20 10:11:44;;;;;;;2.85;1.70;;;;;;;;;;4468579;28;20118;-60
2022/07/20 10:13:56;;;;;;;4.45;1.80;;;;;;;;;;4469279;28;20024;-60
2022/07/20 10:16:29;;;;;;;3.97;2.22;;;;;;;;;;4451357;28;20197;-59
2022/07/20 10:18:44;;;;;;;3.75;2.00;;;;;;;;;;4450479;28;20047;-58
2022/07/20 10:20:54;;;;;;;3.67;2.10;;;;;;;;;;4450698;28;20753;-60
2022/07/20 10:23:14;;;;;;;4.45;2.35;;;;;;;;;;4468408;28;20122;-58
2022/07/20 10:25:29;;;;;;;4.22;2.40;;;;;;;;;;4468715;28;20042;-58
2022/07/20 10:27:40;;;;;;;4.28;2.30;;;;;;;;;;4435351;28;20048;-59
2022/07/20 10:29:52;;;;;;;4.15;2.10;;;;;;;;;;4467895;28;20491;-58
2022/07/20 10:32:09;;;;;;;5.07;2.13;;;;;;;;;;4450533;28;20046;-59
2022/07/20 10:34:38;;;;;;;4.95;2.30;;;;;;;;;;4468496;28;20589;-58
2022/07/20 10:37:25;;;;;;;3.60;2.30;;;;;;;;;;4450369;28;20086;-58
2022/07/20 10:39:46;;;;;;;4.82;2.30;;;;;;;;;;4467153;28;20925;-57
2022/07/20 10:42:20;;;;;;;6.45;2.40;;;;;;;;;;4466210;28;20022;-58
2022/07/20 10:44:31;;;;;;;4.88;2.45;;;;;;;;;;4466453;28;20069;-59
2022/07/20 10:46:41;;;;;;;5.28;2.63;;;;;;;;;;4466800;28;20054;-59
2022/07/20 10:48:52;;;;;;;4.78;2.25;;;;;;;;;;4450036;28;20035;-59
2022/07/20 10:51:10;;;;;;;5.18;2.40;;;;;;;;;;4449320;28;20039;-59
2022/07/20 10:53:24;;;;;;;4.80;2.40;;;;;;;;;;4449871;28;20039;-59
2022/07/20 10:55:35;;;;;;;4.13;2.85;;;;;;;;;;4467577;28;20034;-59
2022/07/20 10:57:45;;;;;;;5.53;2.67;;;;;;;;;;4467803;28;20391;-59
2022/07/20 11:00:04;;;;;;;4.18;2.60;;;;;;;;;;4450868;28;20036;-59
2022/07/20 11:02:14;;;;;;;4.47;2.40;;;;;;;;;;4467037;28;20109;-59
2022/07/20 11:04:25;;;;;;;4.20;2.30;;;;;;;;;;4450173;28;20039;-59
2022/07/20 11:06:35;;;;;;;4.57;2.50;;;;;;;;;;4468382;28;20038;-60
2022/07/20 11:08:57;;;;;;;4.53;2.35;;;;;;;;;;4467750;28;20050;-59
2022/07/20 11:11:14;;;;;;;5.43;2.55;;;;;;;;;;4468121;28;20022;-59
2022/07/20 11:13:24;;;;;;;4.30;2.20;;;;;;;;;;4467855;28;20936;-59
2022/07/20 11:15:48;;;;;;;4.50;2.20;;;;;;;;;;4468071;28;20038;-59
2022/07/20 11:17:58;;;;;;;5.18;2.35;;;;;;;;;;4467811;28;20035;-59
2022/07/20 11:20:09;;;;;;;4.65;2.42;;;;;;;;;;4467698;28;20035;-59
2022/07/20 11:22:20;;;;;;;4.20;2.40;;;;;;;;;;4468061;28;20174;-59
2022/07/20 11:24:31;;;;;;;4.93;2.30;;;;;;;;;;4467874;28;20793;-59
2022/07/20 11:26:41;;;;;;;4.25;2.22;;;;;;;;;;4465982;28;20542;-59
2022/07/20 11:28:57;;;;;;;5.80;2.35;;;;;;;;;;4452523;28;20043;-59
2022/07/20 11:31:07;;;;;;;5.40;2.50;;;;;;;;;;4450181;28;20106;-59
2022/07/20 11:33:42;;;;;;;3.55;2.20;;;;;;;;;;4467776;28;20050;-59
2022/07/20 11:35:54;;;;;;;3.92;2.25;;;;;;;;;;4462819;28;20047;-59
2022/07/20 11:38:05;;;;;;;4.32;2.50;;;;;;;;;;4450570;28;20119;-59
2022/07/20 11:40:17;;;;;;;4.68;2.20;;;;;;;;;;4468655;28;20593;-59
2022/07/20 11:42:28;;;;;;;3.60;2.00;;;;;;;;;;4450605;28;20039;-66
2022/07/20 11:44:39;;;;;;;3.50;2.10;;;;;;;;;;4469349;28;20039;-65
2022/07/20 11:46:50;;;;;;;3.15;1.92;;;;;;;;;;4467847;28;20047;-65
2022/07/20 11:49:04;;;;;;;5.80;2.03;;;;;;;;;;4467701;28;20475;-67
2022/07/20 11:51:15;;;;;;;3.20;1.98;;;;;;;;;;4467029;28;20027;-63
2022/07/20 11:53:33;;;;;;;3.15;1.98;;;;;;;;;;4468008;28;20031;-59
2022/07/20 11:55:44;;;;;;;3.75;2.10;;;;;;;;;;4468154;28;20805;-59
2022/07/20 11:57:55;;;;;;;3.38;1.95;;;;;;;;;;4452585;28;20234;-58
2022/07/20 12:00:06;;;;;;;3.05;1.80;;;;;;;;;;4466774;28;20039;-59
2022/07/20 12:02:22;;;;;;;2.67;2.20;;;;;;;;;;4465525;28;20037;-59
2022/07/20 12:04:34;;;;;;;3.63;1.85;;;;;;;;;;4467766;28;20050;-59
2022/07/20 12:06:44;;;;;;;3.13;2.10;;;;;;;;;;4450847;28;20046;-59
2022/07/20 12:09:10;;;;;;;3.47;2.15;;;;;;;;;;4467980;28;20799;-59
2022/07/20 12:11:20;;;;;;;2.85;2.00;;;;;;;;;;4450342;28;20750;-59
2022/07/20 12:13:32;;;;;;;3.05;1.80;;;;;;;;;;4467847;28;20069;-59
2022/07/20 12:16:00;;;;;;;2.95;2.05;;;;;;;;;;4467653;28;20037;-59
2022/07/20 12:18:11;;;;;;;2.65;2.10;;;;;;;;;;4467760;28;20893;-59
2022/07/20 12:20:22;;;;;;;3.75;2.30;;;;;;;;;;4467826;28;20033;-59
2022/07/20 12:22:33;;;;;;;2.97;1.90;;;;;;;;;;4433758;28;20082;-59
2022/07/20 12:24:53;;;;;;;3.30;2.10;;;;;;;;;;4468053;28;20045;-59
2022/07/20 12:27:04;;;;;;;2.70;2.05;;;;;;;;;;4468154;28;21347;-59
2022/07/20 12:29:26;;;;;;;2.85;1.90;;;;;;;;;;4434548;28;20106;-59
2022/07/20 12:31:36;;;;;;;3.15;2.30;;;;;;;;;;4467361;28;20035;-58
2022/07/20 12:34:14;;;;;;;3.10;1.98;;;;;;;;;;4467981;28;21100;-59
2022/07/20 12:36:34;;;;;;;4.28;2.08;;;;;;;;;;4468036;28;20031;-59
2022/07/20 12:38:45;;;;;;;3.00;2.15;;;;;;;;;;4467785;28;20129;-59
2022/07/20 12:40:56;;;;;;;2.85;1.85;;;;;;;;;;4467257;28;20534;-59
2022/07/20 12:43:33;;;;;;;3.08;2.00;;;;;;;;;;4467411;28;20039;-58
2022/07/20 12:45:43;;;;;;;2.97;1.83;;;;;;;;;;4450053;28;20046;-59
2022/07/20 12:47:54;;;;;;;2.78;1.90;;;;;;;;;;4466710;28;20605;-59
2022/07/20 12:50:04;;;;;;;2.95;2.10;;;;;;;;;;4467347;28;20483;-59
2022/07/20 12:52:15;;;;;;;3.38;1.80;;;;;;;;;;4467261;28;20039;-59
2022/07/20 12:54:26;;;;;;;3.05;2.00;;;;;;;;;;4467122;28;20334;-59
2022/07/20 12:56:36;;;;;;;2.83;1.98;;;;;;;;;;4467273;28;20462;-59
2022/07/20 12:58:47;;;;;;;3.25;1.75;;;;;;;;;;4467636;28;20777;-59
2022/07/20 13:00:58;;;;;;;2.60;1.83;;;;;;;;;;4470267;28;20057;-58
2022/07/20 13:03:09;;;;;;;3.28;2.10;;;;;;;;;;4470202;28;20038;-59
2022/07/20 13:05:21;;;;;;;2.90;1.90;;;;;;;;;;4470808;28;20031;-59
2022/07/20 13:07:31;;;;;;;3.70;1.83;;;;;;;;;;4468736;28;20046;-59
2022/07/20 13:09:42;;;;;;;2.60;1.85;;;;;;;;;;4470376;28;20035;-59
2022/07/20 13:11:53;;;;;;;2.53;1.90;;;;;;;;;;4470309;28;20031;-59
2022/07/20 13:14:04;;;;;;;3.15;1.90;;;;;;;;;;4469402;28;20462;-62
2022/07/20 13:16:14;;;;;;;2.17;1.73;;;;;;;;;;4447984;28;20487;-59
2022/07/20 13:18:25;;;;;;;2.28;1.80;;;;;;;;;;4464871;28;20569;-59
2022/07/20 13:20:37;;;;;;;2.42;1.90;;;;;;;;;;4469550;28;20042;-60
2022/07/20 13:22:47;;;;;;;3.85;2.03;;;;;;;;;;4435228;28;20103;-60
2022/07/20 13:24:58;;;;;;;2.10;1.85;;;;;;;;;;4457893;28;20138;-60
2022/07/20 13:27:09;;;;;;;2.95;2.13;;;;;;;;;;4454394;28;20082;-59
2022/07/20 13:29:19;;;;;;;2.40;1.90;;;;;;;;;;4443466;28;20467;-59
2022/07/20 13:31:33;;;;;;;2.40;1.95;;;;;;;;;;4469222;28;21124;-59
2022/07/20 13:33:43;;;;;;;2.30;1.80;;;;;;;;;;4468905;28;20034;-59
2022/07/20 13:35:54;;;;;;;3.15;1.88;;;;;;;;;;4452695;28;20035;-60
2022/07/20 13:38:04;;;;;;;2.08;1.52;;;;;;;;;;4469561;28;20039;-60
2022/07/20 13:40:16;;;;;;;3.35;1.92;;;;;;;;;;4469620;28;20077;-59
2022/07/20 13:42:27;;;;;;;3.05;1.92;;;;;;;;;;4449112;28;20051;-59
2022/07/20 13:44:38;;;;;;;2.15;1.70;;;;;;;;;;4469693;28;20039;-60
2022/07/20 13:46:49;;;;;;;3.38;1.90;;;;;;;;;;4469353;28;20039;-60
2022/07/20 13:49:00;;;;;;;2.47;1.90;;;;;;;;;;4467021;28;20027;-61
2022/07/20 13:51:11;;;;;;;2.38;1.85;;;;;;;;;;4469062;28;20035;-60
2022/07/20 13:53:22;;;;;;;2.88;1.75;;;;;;;;;;4469506;28;21039;-60
2022/07/20 13:55:32;;;;;;;2.58;1.73;;;;;;;;;;4451832;28;20035;-60
2022/07/20 13:57:43;;;;;;;2.10;1.70;;;;;;;;;;4452002;28;20039;-60
2022/07/20 13:59:53;;;;;;;2.60;1.80;;;;;;;;;;4470160;28;20027;-59
2022/07/20 14:02:04;;;;;;;2.75;1.95;;;;;;;;;;4469570;28;20818;-60
2022/07/20 14:04:17;;;;;;;2.60;1.83;;;;;;;;;;4469126;28;20043;-60
2022/07/20 14:06:27;;;;;;;2.53;1.85;;;;;;;;;;4451149;28;20898;-60
2022/07/20 14:08:38;;;;;;;2.42;1.92;;;;;;;;;;4468998;28;20145;-60
2022/07/20 14:10:49;;;;;;;2.50;1.80;;;;;;;;;;4468644;28;20085;-60
2022/07/20 14:12:59;;;;;;;2.55;1.60;;;;;;;;;;4469433;28;20042;-61